Enter the Airport ICAO Code

Search by Airport or City

Current Weather

EHAM | Amsterdam Airport Schiphol

Amsterdam, Netherlands

Last Update 13 Minutes Ago

Partly Cloudy Sky

Temperature of 02 ºC

Light to Moderate Winds from East

Temperature

02 ºC

Dew Point Temperature

00 ºC Below Zero

Relative Humidity

86.58 %

Wind Direction

East (110º, Without Significant Variations)

Wind Velocity

11 km/h (06 kt)

Gusts

None

Visibility

Greater than 10 Kilometers

Sea Level Pressure

1001 hPa (Hectopascals)

Layers of Clouds

30% to 60% of Sky Covered from 1158 mts (3800 ft) Above Ground Level.

METAR EHAM 052125Z 11006KT 9999 SCT038 02/M00 Q1001 NOSIG

Weather Forecast

EHAM | Amsterdam Airport Schiphol

Amsterdam, Netherlands

Forecast valid for the next 26 Hours

From now on it is expected:

Partly Cloudy Sky

Light to Moderate Winds from SouthEast

In 4 to 7 hours it is expected the begining of:

Shallow Fog

Light to Moderate Winds from NorthEast

In 6 hours it is expected the begining of 4 hours with intermittent periods of:

Fog Banks

In 18 to 21 hours it is expected the begining of:

Mist

Light to Moderate Winds from North

Maximum Temperature

No Data

Minimum Temperature

No Data

TAF EHAM 051719Z 0518/0624 12006KT 9999 SCT035 BECMG 0602/0605 06005KT 6000 MIFG PROB30 TEMPO 0604/0608 1200 BCFG BECMG 0608/0611 9999 NSW BECMG 0616/0619 36005KT 4000 BR